Aeroporto :
LOGIN :

Iscrizione | Disclaimer

   EN    FR    IT 

 










Sommario :    VFR   VFR Marginale   IFR   IFR Intensivo   IFR Molto Intensivo
Visibilità : 
Base nubi : 
>= 8 km
>= 3000ft
5 / 8 km
1000 / 3000 ft
1500m / 5 km
500 / 1000 ft
800 / 1500m
200 / 500 ft
< 800m
< 200 ft
Simboli :   Temporali  Nebbia  Neve Forte  Precipitazioni Forti  Vento > 20 kt
SIGMETs :   Varie  Temporali  Ghiacco  Turbolenza  Onda orograficha  Ceneri Vulcaniche






- Altitudine del aeroporto : 289 ft


LFYR - Romorantin Pruniers

ULTIMO METAR :
  • 051400Z AUTO 22008KT 190V260 9999 SCT028 BKN044 OVC052 21/15 Q1010 TEMPO 3000 RA BKN020TCU

METARs OBSOLETI :
  • 051330Z AUTO 21010KT 180V250 9999 SCT031 BKN042 BKN049 20/15 Q1010 TEMPO 3000 RA BKN020TCU
  • 051300Z AUTO 21006KT 180V250 9999 FEW032 SCT042 BKN049 20/15 Q1010 TEMPO 4000 SHRA BKN020TCU
  • 051230Z AUTO 22006KT 180V280 9999 SCT037 BKN047 OVC060 21/14 Q1010 TEMPO 4000 SHRA BKN020TCU
  • 051200Z AUTO 22009KT 190V260 9999 SCT035 BKN041 BKN047 21/14 Q1011 TEMPO 4000 SHRA BKN020TCU
  • 051130Z AUTO 22008KT 170V260 9999 FEW034 SCT041 BKN054 21/15 Q1011 TEMPO 4000 SHRA BKN020TCU

TAF TAF LFYR
Valido dal 05 a 09 ore il 06 a 09 ore UTC


050800Z 0509/0609 25010KT 9999 SCT015 BKN030
PROB40
TEMPO 0512/0515 4000 SHRA BKN020TCU
BECMG 0515/0517 22012G22KT
PROB40
TEMPO 0515/0604 3000 RA BKN013 BKN020



MetMap, La meteo Aeronautica in un colpo d'occhio ! - Copyright ORBIFLY Dicembre 2007 - Disclaimer

ORBIFLY MET'MAP TEAM :

Programmazione e sviluppo : Alexandra Zaïnal
Concezione : Baudouin d'Aumeries
Aiuto per la programmazione : Marc-Olivier Méhu
Supporto tecnico e logistico : Manuel Goepfert
Aiuto per la traduzione : Arnaldo La Scala

Contatto : metmap@orbifly.com




FONTI E CREDITI :

   NOAA